Four Corners Regional Airport
KFMN : now visible

Airfield :











YOU CAN JOIN US ON...

 
LOGIN :

Register | Disclaimer

   EN    FR    IT 

 









Legend :    VFR   Marginal VFR   IFR   Intensive IFR   Very Intensive IFR
Visi :
Ceiling :
>= 8 km
>= 3000ft
5 to 8 km
1000 to 3000 ft
1500m to 5 km
500 to 1000 ft
800 to 1500m
200 to 500 ft
< 800m
< 200 ft
Symbols :   Thunderstorms  Fog  Heavy snow  Heavy precipitations  Wind > 20 kt






- Airport Elevation : 5506 ft


KFMN - Four Corners Regional

CURRENT METAR :
  • 060353Z 09005KT 10SM CLR 28/M02 A3005 RMK AO2 SLP098 T02831022

EXPIRED METARs :
  • 060253Z 30005KT 10SM CLR 31/M09 A3003 RMK AO2 SLP093 T03061094 53001
  • 060153Z 29008KT 10SM CLR 33/M09 A3002 RMK AO2 SLP089 T03331089

TAF KFMN
Valid from the 06 at 00:00 until the 07 at 00:00 UTC


052329Z 0600/0624 29015G22KT P6SM SCT120
TEMPO 0600/0602 02015G22KT
FM060300 07007KT P6SM SKC
FM061900 25008KT P6SM FEW100
FM062100 29012KT P6SM SCT120
FM062300 30006KT P6SM SKC
KZDV FIR / North America



MET'MAP, your aeronautical weather chart ! - Copyright ORBIFLY December 2007 - Disclaimer

ORBIFLY MET'MAP TEAM :

Programming & Development : Alexandra Zaïnal
Concept & original design : Baudouin d'Aumeries
Assistance for programming : Marc-Olivier Méhu
Technical & hardware support : Manuel Goepfert

Contact : metmap@orbifly.com




SOURCES & CREDITS :

   NOAA       Earth
Advisory